CES721 ZSSS-VHHH
Flight info
| Callsign | CES721 |
|---|---|
| Flight time | N/A |
| Altitude | 36100 |
| Route | NXD61D NXD W131 AKDIM A470 BEBEM/N0489F361 A470 DOTMI V512 ABBEY |
| Aircraft | B77W/H-SDE1E2E3FGHIJ2J3J4J5M1RWXY/LB1D1 |
Departure
| Time | 2026-05-06 22:58 |
|---|---|
| Airport | Shanghai Hongqiao International Airport (ZSSS) |
Arrival
| Time | N/A |
|---|---|
| Airport | Hong Kong International Airport (VHHH) |
| Time | Latitude | Longitude | Altitude | Speed | Heading |
|---|---|---|---|---|---|
| 2026-05-06 22:48 | 31.19912 | 121.34235 | 29 ft | 0 kts | 268° |
| 2026-05-06 22:48 | 31.19912 | 121.34234 | 29 ft | 1 kts | 268° |
| 2026-05-06 22:48 | 31.19911 | 121.34193 | 26 ft | 11 kts | 268° |
| 2026-05-06 22:49 | 31.19908 | 121.34104 | 27 ft | 9 kts | 268° |
| 2026-05-06 22:49 | 31.19905 | 121.34028 | 26 ft | 10 kts | 267° |
| 2026-05-06 22:49 | 31.19895 | 121.33950 | 27 ft | 10 kts | 261° |
| 2026-05-06 22:49 | 31.19890 | 121.33872 | 25 ft | 10 kts | 267° |
| 2026-05-06 22:50 | 31.19887 | 121.33794 | 27 ft | 10 kts | 267° |
| 2026-05-06 22:50 | 31.19884 | 121.33716 | 27 ft | 10 kts | 268° |
| 2026-05-06 22:50 | 31.19881 | 121.33637 | 27 ft | 10 kts | 267° |
| 2026-05-06 22:50 | 31.19878 | 121.33562 | 25 ft | 9 kts | 267° |
| 2026-05-06 22:51 | 31.19876 | 121.33521 | 24 ft | 4 kts | 267° |
| 2026-05-06 22:51 | 31.19875 | 121.33488 | 24 ft | 4 kts | 267° |
| 2026-05-06 22:51 | 31.19881 | 121.33453 | 26 ft | 5 kts | 304° |
| 2026-05-06 22:51 | 31.19918 | 121.33435 | 27 ft | 9 kts | 351° |
| 2026-05-06 22:52 | 31.20001 | 121.33428 | 25 ft | 14 kts | 357° |
| 2026-05-06 22:52 | 31.20099 | 121.33423 | 25 ft | 14 kts | 359° |
| 2026-05-06 22:52 | 31.20201 | 121.33418 | 27 ft | 15 kts | 356° |
| 2026-05-06 22:52 | 31.20305 | 121.33411 | 25 ft | 15 kts | 357° |
| 2026-05-06 22:53 | 31.20409 | 121.33405 | 25 ft | 15 kts | 358° |
| 2026-05-06 22:53 | 31.20514 | 121.33399 | 25 ft | 15 kts | 356° |
| 2026-05-06 22:53 | 31.20619 | 121.33394 | 25 ft | 15 kts | 359° |
| 2026-05-06 22:53 | 31.20726 | 121.33387 | 25 ft | 16 kts | 359° |
| 2026-05-06 22:54 | 31.20834 | 121.33383 | 24 ft | 16 kts | 357° |
| 2026-05-06 22:54 | 31.20942 | 121.33377 | 24 ft | 16 kts | 357° |
| 2026-05-06 22:54 | 31.21049 | 121.33371 | 26 ft | 16 kts | 357° |
| 2026-05-06 22:54 | 31.21155 | 121.33365 | 24 ft | 14 kts | 357° |
| 2026-05-06 22:55 | 31.21221 | 121.33362 | 27 ft | 8 kts | 357° |
| 2026-05-06 22:55 | 31.21271 | 121.33359 | 25 ft | 6 kts | 357° |
| 2026-05-06 22:55 | 31.21280 | 121.33357 | 25 ft | 3 kts | 343° |
| 2026-05-06 22:55 | 31.21293 | 121.33328 | 25 ft | 5 kts | 283° |
| 2026-05-06 22:56 | 31.21297 | 121.33283 | 25 ft | 6 kts | 274° |
| 2026-05-06 22:56 | 31.21296 | 121.33229 | 25 ft | 6 kts | 266° |
| 2026-05-06 22:56 | 31.21289 | 121.33176 | 26 ft | 7 kts | 243° |
| 2026-05-06 22:56 | 31.21242 | 121.33167 | 24 ft | 8 kts | 174° |
| 2026-05-06 22:57 | 31.21156 | 121.33173 | 23 ft | 26 kts | 178° |
| 2026-05-06 22:57 | 31.20709 | 121.33198 | 25 ft | 106 kts | 177° |
| 2026-05-06 22:57 | 31.19716 | 121.33253 | 32 ft | 175 kts | 177° |
| 2026-05-06 22:57 | 31.18404 | 121.33315 | 508 ft | 193 kts | 178° |
| 2026-05-06 22:58 | 31.17062 | 121.33363 | 1424 ft | 191 kts | 178° |
| 2026-05-06 22:58 | 31.15721 | 121.33440 | 2222 ft | 199 kts | 179° |
| 2026-05-06 22:58 | 31.14251 | 121.33519 | 2572 ft | 226 kts | 179° |
| 2026-05-06 22:58 | 31.12604 | 121.33597 | 2949 ft | 252 kts | 179° |
| 2026-05-06 22:59 | 31.10806 | 121.33672 | 3646 ft | 266 kts | 180° |
| 2026-05-06 22:59 | 31.08923 | 121.33755 | 4485 ft | 274 kts | 181° |
| 2026-05-06 22:59 | 31.07009 | 121.33688 | 5209 ft | 281 kts | 194° |
| 2026-05-06 22:59 | 31.05297 | 121.32719 | 6162 ft | 268 kts | 227° |
| 2026-05-06 23:00 | 31.04326 | 121.30919 | 7204 ft | 266 kts | 256° |
| 2026-05-06 23:00 | 31.04156 | 121.28758 | 7945 ft | 273 kts | 273° |
| 2026-05-06 23:00 | 31.04418 | 121.26541 | 8771 ft | 279 kts | 280° |
| 2026-05-06 23:00 | 31.04823 | 121.24303 | 9624 ft | 285 kts | 281° |
| 2026-05-06 23:01 | 31.05262 | 121.22052 | 10372 ft | 293 kts | 281° |
| 2026-05-06 23:01 | 31.05725 | 121.19643 | 10737 ft | 318 kts | 281° |
| 2026-05-06 23:01 | 31.06216 | 121.17005 | 10966 ft | 347 kts | 280° |
| 2026-05-06 23:01 | 31.06728 | 121.14153 | 11328 ft | 365 kts | 278° |
| 2026-05-06 23:02 | 31.06745 | 121.11172 | 12010 ft | 373 kts | 257° |
| 2026-05-06 23:02 | 31.06068 | 121.08262 | 12955 ft | 374 kts | 252° |
| 2026-05-06 23:02 | 31.05323 | 121.05351 | 14026 ft | 375 kts | 252° |
| 2026-05-06 23:02 | 31.04578 | 121.02444 | 15054 ft | 375 kts | 252° |
| 2026-05-06 23:03 | 31.03857 | 120.99611 | 15984 ft | 377 kts | 253° |
| 2026-05-06 23:03 | 31.03121 | 120.96697 | 16872 ft | 381 kts | 253° |
| 2026-05-06 23:03 | 31.02375 | 120.93719 | 17823 ft | 384 kts | 253° |
| 2026-05-06 23:03 | 31.01628 | 120.90724 | 18689 ft | 386 kts | 254° |
| 2026-05-06 23:04 | 31.00876 | 120.87697 | 19379 ft | 392 kts | 254° |
| 2026-05-06 23:04 | 31.00113 | 120.84623 | 20026 ft | 398 kts | 254° |
| 2026-05-06 23:04 | 30.99338 | 120.81503 | 20714 ft | 403 kts | 254° |
| 2026-05-06 23:04 | 30.98552 | 120.78345 | 21398 ft | 408 kts | 254° |